Time,TemperatureF,DewpointF,PressureIn,WindDirection,WindDirectionDegrees,WindSpeedMPH,WindSpeedGustMPH,Humidity,HourlyPrecipIn,Conditions,Clouds,dailyrainin,SoftwareType,DateUTC
2013-09-10 00:01:00,70.0,64.6,29.95,North,-999,-999.0,0.0,83,0.00,,---,0.00,VWS V14.01,2013-09-10 04:01:00,
2013-09-10 00:02:00,70.0,64.6,29.95,North,-999,-999.0,0.0,83,0.00,,---,0.00,VWS V14.01,2013-09-10 04:02:00,
2013-09-10 00:03:00,70.0,64.6,29.95,North,-999,-999.0,0.0,83,0.00,,---,0.00,VWS V14.01,2013-09-10 04:03:00,
2013-09-10 00:06:00,70.0,64.6,29.95,North,-999,-999.0,0.0,83,0.00,,---,0.00,VWS V14.01,2013-09-10 04:06:00,
2013-09-10 00:11:00,69.8,64.4,29.95,North,-999,-999.0,0.0,83,0.00,,---,0.00,VWS V14.01,2013-09-10 04:11:00,
2013-09-10 00:17:00,69.8,64.4,29.95,North,-999,-999.0,0.0,83,0.00,,---,0.00,VWS V14.01,2013-09-10 04:17:00,
2013-09-10 00:22:00,69.7,64.3,29.95,North,-999,-999.0,0.0,83,0.00,,---,0.00,VWS V14.01,2013-09-10 04:22:00,
2013-09-10 00:27:00,69.7,64.3,29.95,North,-999,-999.0,0.0,83,0.00,,---,0.00,VWS V14.01,2013-09-10 04:27:00,
2013-09-10 00:32:00,69.7,64.3,29.95,North,-999,-999.0,0.0,83,0.00,,---,0.00,VWS V14.01,2013-09-10 04:32:00,
2013-09-10 00:37:00,69.5,64.5,29.96,North,-999,-999.0,0.0,84,0.00,,---,0.00,VWS V14.01,2013-09-10 04:37:00,
2013-09-10 00:42:00,69.5,64.5,29.95,North,-999,-999.0,0.0,84,0.00,,---,0.00,VWS V14.01,2013-09-10 04:42:00,
2013-09-10 00:47:00,69.5,64.5,29.95,North,-999,-999.0,0.0,84,0.00,,---,0.00,VWS V14.01,2013-09-10 04:47:00,
2013-09-10 00:52:00,69.5,64.5,29.95,North,-999,-999.0,0.0,84,0.00,,---,0.00,VWS V14.01,2013-09-10 04:52:00,
2013-09-10 00:57:00,69.3,64.3,29.95,North,-999,-999.0,0.0,84,0.00,,---,0.00,VWS V14.01,2013-09-10 04:57:00,
2013-09-10 01:03:00,69.3,64.3,29.96,North,-999,-999.0,0.0,84,0.00,,---,0.00,VWS V14.01,2013-09-10 05:03:00,
2013-09-10 01:08:00,69.1,64.1,29.96,North,-999,-999.0,0.0,84,0.00,,---,0.00,VWS V14.01,2013-09-10 05:08:00,
2013-09-10 01:13:00,69.1,64.1,29.96,North,-999,-999.0,0.0,84,0.00,,---,0.00,VWS V14.01,2013-09-10 05:13:00,
2013-09-10 01:18:00,69.1,64.1,29.96,North,-999,-999.0,0.0,84,0.00,,---,0.00,VWS V14.01,2013-09-10 05:18:00,
2013-09-10 01:23:00,69.1,64.1,29.96,North,-999,-999.0,0.0,84,0.00,,---,0.00,VWS V14.01,2013-09-10 05:23:00,
2013-09-10 01:28:00,68.9,63.9,29.96,North,-999,-999.0,0.0,84,0.00,,---,0.00,VWS V14.01,2013-09-10 05:28:00,
2013-09-10 01:33:00,68.8,63.8,29.96,North,-999,-999.0,0.0,84,0.00,,---,0.00,VWS V14.01,2013-09-10 05:33:00,
2013-09-10 01:38:00,68.8,63.8,29.96,North,-999,-999.0,0.0,84,0.00,,---,0.00,VWS V14.01,2013-09-10 05:38:00,
2013-09-10 01:43:00,68.6,63.9,29.96,North,-999,-999.0,0.0,85,0.00,,---,0.00,VWS V14.01,2013-09-10 05:43:00,
2013-09-10 01:48:00,68.6,63.9,29.97,North,-999,-999.0,0.0,85,0.00,,---,0.00,VWS V14.01,2013-09-10 05:48:00,
2013-09-10 01:53:00,68.6,63.9,29.97,North,-999,-999.0,0.0,85,0.00,,---,0.00,VWS V14.01,2013-09-10 05:53:00,
2013-09-10 01:58:00,68.4,63.7,29.97,North,-999,-999.0,0.0,85,0.00,,---,0.00,VWS V14.01,2013-09-10 05:58:00,
2013-09-10 02:04:00,68.4,63.7,29.97,North,-999,-999.0,0.0,85,0.00,,---,0.00,VWS V14.01,2013-09-10 06:04:00,
2013-09-10 02:09:00,68.4,63.7,29.97,North,-999,-999.0,0.0,85,0.00,,---,0.00,VWS V14.01,2013-09-10 06:09:00,
2013-09-10 02:14:00,68.4,63.7,29.98,North,-999,-999.0,0.0,85,0.00,,---,0.00,VWS V14.01,2013-09-10 06:14:00,
2013-09-10 02:19:00,68.2,63.5,29.98,North,-999,-999.0,0.0,85,0.00,,---,0.00,VWS V14.01,2013-09-10 06:19:00,
2013-09-10 02:24:00,68.2,63.5,29.98,North,-999,-999.0,0.0,85,0.00,,---,0.00,VWS V14.01,2013-09-10 06:24:00,
2013-09-10 02:29:00,68.0,63.3,29.98,North,-999,-999.0,0.0,85,0.00,,---,0.00,VWS V14.01,2013-09-10 06:29:00,
2013-09-10 02:34:00,68.0,63.7,29.98,North,-999,-999.0,0.0,86,0.00,,---,0.00,VWS V14.01,2013-09-10 06:34:00,
2013-09-10 02:39:00,67.9,63.6,29.98,North,-999,-999.0,0.0,86,0.00,,---,0.00,VWS V14.01,2013-09-10 06:39:00,
2013-09-10 02:44:00,67.9,63.6,29.98,North,-999,-999.0,0.0,86,0.00,,---,0.00,VWS V14.01,2013-09-10 06:44:00,
2013-09-10 02:49:00,67.7,63.4,29.98,North,-999,-999.0,0.0,86,0.00,,---,0.00,VWS V14.01,2013-09-10 06:49:00,
2013-09-10 02:54:00,67.7,63.4,29.98,North,-999,-999.0,0.0,86,0.00,,---,0.00,VWS V14.01,2013-09-10 06:54:00,
2013-09-10 02:59:00,67.9,63.6,29.98,North,-999,-999.0,0.0,86,0.00,,---,0.00,VWS V14.01,2013-09-10 06:59:00,
2013-09-10 03:05:00,67.7,63.4,29.98,North,-999,-999.0,0.0,86,0.00,,---,0.00,VWS V14.01,2013-09-10 07:05:00,
2013-09-10 03:10:00,67.7,63.4,29.98,North,-999,-999.0,0.0,86,0.00,,---,0.00,VWS V14.01,2013-09-10 07:10:00,
2013-09-10 03:15:00,67.5,63.2,29.98,North,-999,-999.0,0.0,86,0.00,,---,0.00,VWS V14.01,2013-09-10 07:15:00,
2013-09-10 03:20:00,67.5,63.2,29.98,North,-999,-999.0,0.0,86,0.00,,---,0.00,VWS V14.01,2013-09-10 07:20:00,
2013-09-10 03:25:00,67.5,63.2,29.98,North,-999,-999.0,0.0,86,0.00,,---,0.00,VWS V14.01,2013-09-10 07:25:00,
2013-09-10 03:30:00,67.3,63.0,29.98,North,-999,-999.0,0.0,86,0.00,,---,0.00,VWS V14.01,2013-09-10 07:30:00,
2013-09-10 03:35:00,67.3,63.0,29.98,North,-999,-999.0,0.0,86,0.00,,---,0.00,VWS V14.01,2013-09-10 07:35:00,
2013-09-10 03:40:00,67.3,63.0,29.98,North,-999,-999.0,0.0,86,0.00,,---,0.00,VWS V14.01,2013-09-10 07:40:00,
2013-09-10 03:45:00,67.3,63.0,29.98,North,-999,-999.0,0.0,86,0.00,,---,0.00,VWS V14.01,2013-09-10 07:45:00,
2013-09-10 03:50:00,67.1,62.8,29.98,North,-999,-999.0,0.0,86,0.00,,---,0.00,VWS V14.01,2013-09-10 07:50:00,
2013-09-10 03:55:00,67.1,63.1,29.98,North,-999,-999.0,0.0,87,0.00,,---,0.00,VWS V14.01,2013-09-10 07:55:00,
2013-09-10 04:01:00,67.1,63.1,29.98,North,-999,-999.0,0.0,87,0.00,,---,0.00,VWS V14.01,2013-09-10 08:01:00,
2013-09-10 04:06:00,67.0,63.0,29.99,North,-999,-999.0,0.0,87,0.00,,---,0.00,VWS V14.01,2013-09-10 08:06:00,
2013-09-10 04:11:00,67.0,63.0,29.99,North,-999,-999.0,0.0,87,0.00,,---,0.00,VWS V14.01,2013-09-10 08:11:00,
2013-09-10 04:16:00,67.0,63.0,29.99,North,-999,-999.0,0.0,87,0.00,,---,0.00,VWS V14.01,2013-09-10 08:16:00,
2013-09-10 04:21:00,67.0,63.0,29.99,North,-999,-999.0,0.0,87,0.00,,---,0.00,VWS V14.01,2013-09-10 08:21:00,
2013-09-10 04:26:00,67.0,63.0,29.99,North,-999,-999.0,0.0,87,0.00,,---,0.00,VWS V14.01,2013-09-10 08:26:00,
2013-09-10 04:31:00,67.0,63.0,29.99,North,-999,-999.0,0.0,87,0.00,,---,0.00,VWS V14.01,2013-09-10 08:31:00,
2013-09-10 04:36:00,66.8,62.8,29.99,North,-999,-999.0,0.0,87,0.00,,---,0.00,VWS V14.01,2013-09-10 08:36:00,
2013-09-10 04:41:00,66.8,62.8,29.99,North,-999,-999.0,0.0,87,0.00,,---,0.00,VWS V14.01,2013-09-10 08:41:00,
2013-09-10 04:46:00,66.6,62.6,29.99,North,-999,-999.0,0.0,87,0.00,,---,0.00,VWS V14.01,2013-09-10 08:46:00,
2013-09-10 04:51:00,66.6,62.6,29.99,North,-999,-999.0,0.0,87,0.00,,---,0.00,VWS V14.01,2013-09-10 08:51:00,
2013-09-10 04:56:00,66.6,62.6,29.99,North,-999,-999.0,0.0,87,0.00,,---,0.00,VWS V14.01,2013-09-10 08:56:00,
2013-09-10 05:02:00,66.4,62.4,30.00,North,-999,-999.0,0.0,87,0.00,,---,0.00,VWS V14.01,2013-09-10 09:02:00,
2013-09-10 05:07:00,66.4,62.7,29.99,North,-999,-999.0,0.0,88,0.00,,---,0.00,VWS V14.01,2013-09-10 09:07:00,
2013-09-10 05:12:00,66.4,62.7,30.00,North,-999,-999.0,0.0,88,0.00,,---,0.00,VWS V14.01,2013-09-10 09:12:00,
2013-09-10 05:17:00,66.4,62.4,30.00,North,-999,-999.0,0.0,87,0.00,,---,0.00,VWS V14.01,2013-09-10 09:17:00,
2013-09-10 05:22:00,66.2,62.5,29.99,North,-999,-999.0,0.0,88,0.00,,---,0.00,VWS V14.01,2013-09-10 09:22:00,
2013-09-10 05:27:00,66.2,62.5,29.99,North,-999,-999.0,0.0,88,0.00,,---,0.00,VWS V14.01,2013-09-10 09:27:00,
2013-09-10 05:32:00,66.1,62.5,29.99,North,-999,-999.0,0.0,88,0.00,,---,0.00,VWS V14.01,2013-09-10 09:32:00,
2013-09-10 05:37:00,66.1,62.5,30.00,North,-999,-999.0,0.0,88,0.00,,---,0.00,VWS V14.01,2013-09-10 09:37:00,
2013-09-10 05:42:00,66.1,62.5,30.00,North,-999,-999.0,0.0,88,0.00,,---,0.00,VWS V14.01,2013-09-10 09:42:00,
2013-09-10 05:47:00,65.9,62.2,30.00,North,-999,-999.0,0.0,88,0.00,,---,0.00,VWS V14.01,2013-09-10 09:47:00,
2013-09-10 05:52:00,65.9,62.2,30.00,North,-999,-999.0,0.0,88,0.00,,---,0.00,VWS V14.01,2013-09-10 09:52:00,
2013-09-10 05:57:00,65.9,62.2,30.00,North,-999,-999.0,0.0,88,0.00,,---,0.00,VWS V14.01,2013-09-10 09:57:00,
2013-09-10 06:02:00,65.7,62.0,30.00,North,-999,-999.0,0.0,88,0.00,,---,0.00,VWS V14.01,2013-09-10 10:02:00,
2013-09-10 06:08:00,65.7,62.0,30.00,North,-999,-999.0,0.0,88,0.00,,---,0.00,VWS V14.01,2013-09-10 10:08:00,
2013-09-10 06:13:00,65.7,62.0,30.00,North,-999,-999.0,0.0,88,0.00,,---,0.00,VWS V14.01,2013-09-10 10:13:00,
2013-09-10 06:18:00,65.7,62.0,30.00,North,-999,-999.0,0.0,88,0.00,,---,0.00,VWS V14.01,2013-09-10 10:18:00,
2013-09-10 06:23:00,65.5,61.9,30.00,North,-999,-999.0,0.0,88,0.00,,---,0.00,VWS V14.01,2013-09-10 10:23:00,
2013-09-10 06:28:00,65.5,61.9,30.00,North,-999,-999.0,0.0,88,0.00,,---,0.00,VWS V14.01,2013-09-10 10:28:00,
2013-09-10 06:33:00,65.5,61.9,30.00,North,-999,-999.0,0.0,88,0.00,,---,0.00,VWS V14.01,2013-09-10 10:33:00,
2013-09-10 06:38:00,65.5,61.9,30.00,North,-999,-999.0,0.0,88,0.00,,---,0.00,VWS V14.01,2013-09-10 10:38:00,
2013-09-10 06:43:00,65.3,61.7,30.01,North,-999,-999.0,0.0,88,0.00,,---,0.00,VWS V14.01,2013-09-10 10:43:00,
2013-09-10 06:48:00,65.3,61.7,30.01,North,-999,-999.0,0.0,88,0.00,,---,0.00,VWS V14.01,2013-09-10 10:48:00,
2013-09-10 06:53:00,65.3,61.7,30.01,North,-999,-999.0,0.0,88,0.00,,---,0.00,VWS V14.01,2013-09-10 10:53:00,
2013-09-10 06:58:00,65.3,61.7,30.01,North,-999,-999.0,0.0,88,0.00,,---,0.00,VWS V14.01,2013-09-10 10:58:00,
2013-09-10 07:04:00,65.3,61.7,30.02,North,-999,-999.0,0.0,88,0.00,,---,0.00,VWS V14.01,2013-09-10 11:04:00,
2013-09-10 07:09:00,65.3,61.7,30.02,North,-999,-999.0,0.0,88,0.00,,---,0.00,VWS V14.01,2013-09-10 11:09:00,
2013-09-10 07:14:00,65.3,61.7,30.02,North,-999,-999.0,0.0,88,0.00,,---,0.00,VWS V14.01,2013-09-10 11:14:00,
2013-09-10 07:19:00,65.3,61.7,30.02,North,-999,-999.0,0.0,88,0.00,,---,0.00,VWS V14.01,2013-09-10 11:19:00,
2013-09-10 07:24:00,65.3,61.7,30.02,North,-999,-999.0,0.0,88,0.00,,---,0.00,VWS V14.01,2013-09-10 11:24:00,
2013-09-10 07:29:00,65.3,61.7,30.02,North,-999,-999.0,0.0,88,0.00,,---,0.00,VWS V14.01,2013-09-10 11:29:00,
2013-09-10 07:34:00,65.3,61.7,30.03,North,-999,-999.0,0.0,88,0.00,,---,0.00,VWS V14.01,2013-09-10 11:34:00,
2013-09-10 07:39:00,65.5,61.9,30.03,North,-999,-999.0,0.0,88,0.00,,---,0.00,VWS V14.01,2013-09-10 11:39:00,
2013-09-10 07:44:00,65.5,61.9,30.03,North,-999,-999.0,0.0,88,0.00,,---,0.00,VWS V14.01,2013-09-10 11:44:00,
2013-09-10 07:49:00,65.9,62.2,30.03,North,-999,-999.0,0.0,88,0.00,,---,0.00,VWS V14.01,2013-09-10 11:49:00,
2013-09-10 07:54:00,65.9,62.6,30.03,North,-999,-999.0,0.0,89,0.00,,---,0.00,VWS V14.01,2013-09-10 11:54:00,
2013-09-10 07:59:00,66.1,62.8,30.03,North,-999,-999.0,0.0,89,0.00,,---,0.00,VWS V14.01,2013-09-10 11:59:00,
2013-09-10 08:05:00,66.2,62.5,30.03,North,-999,-999.0,0.0,88,0.00,,---,0.00,VWS V14.01,2013-09-10 12:05:00,
2013-09-10 08:10:00,66.6,63.3,30.03,North,-999,-999.0,0.0,89,0.00,,---,0.00,VWS V14.01,2013-09-10 12:10:00,
2013-09-10 08:15:00,66.6,63.3,30.03,North,-999,-999.0,0.0,89,0.00,,---,0.00,VWS V14.01,2013-09-10 12:15:00,
2013-09-10 08:20:00,67.0,63.3,30.03,North,-999,-999.0,0.0,88,0.00,,---,0.00,VWS V14.01,2013-09-10 12:20:00,
2013-09-10 08:25:00,67.3,63.6,30.03,North,-999,-999.0,0.0,88,0.00,,---,0.00,VWS V14.01,2013-09-10 12:25:00,
2013-09-10 08:30:00,67.7,64.0,30.03,North,-999,-999.0,0.0,88,0.00,,---,0.00,VWS V14.01,2013-09-10 12:30:00,
2013-09-10 08:35:00,68.0,64.3,30.03,North,-999,-999.0,0.0,88,0.00,,---,0.00,VWS V14.01,2013-09-10 12:35:00,
2013-09-10 08:40:00,68.4,64.7,30.03,North,-999,-999.0,0.0,88,0.00,,---,0.00,VWS V14.01,2013-09-10 12:40:00,
2013-09-10 08:45:00,68.9,65.5,30.04,North,-999,-999.0,0.0,89,0.00,,---,0.48,VWS V14.01,2013-09-10 12:45:00,
2013-09-10 08:50:00,69.7,66.0,30.04,North,-999,-999.0,0.0,88,0.00,,---,0.00,VWS V14.01,2013-09-10 12:50:00,
2013-09-10 08:55:00,70.0,66.3,30.04,North,-999,-999.0,0.0,88,0.00,,---,0.00,VWS V14.01,2013-09-10 12:55:00,
2013-09-10 09:01:00,70.9,67.2,30.04,North,-999,-999.0,0.0,88,0.00,,---,0.00,VWS V14.01,2013-09-10 13:01:00,
2013-09-10 09:06:00,71.5,67.8,30.04,North,-999,-999.0,0.0,88,0.00,,---,0.00,VWS V14.01,2013-09-10 13:06:00,
2013-09-10 09:11:00,72.0,67.9,30.04,North,-999,-999.0,0.0,87,0.00,,---,0.00,VWS V14.01,2013-09-10 13:11:00,
2013-09-10 09:16:00,72.4,68.3,30.05,North,-999,-999.0,0.0,87,0.00,,---,0.00,VWS V14.01,2013-09-10 13:16:00,
2013-09-10 09:21:00,72.7,68.3,30.05,North,-999,-999.0,0.0,86,0.00,,---,0.00,VWS V14.01,2013-09-10 13:21:00,
2013-09-10 09:26:00,73.4,69.3,30.05,North,-999,-999.0,0.0,87,0.00,,---,0.00,VWS V14.01,2013-09-10 13:26:00,
2013-09-10 09:31:00,74.2,69.8,30.05,North,-999,-999.0,0.0,86,0.00,,---,0.00,VWS V14.01,2013-09-10 13:31:00,
2013-09-10 09:36:00,74.5,69.7,30.05,North,-999,-999.0,0.0,85,0.00,,---,0.00,VWS V14.01,2013-09-10 13:36:00,
2013-09-10 09:41:00,74.9,69.7,30.05,North,-999,-999.0,0.0,84,0.00,,---,0.00,VWS V14.01,2013-09-10 13:41:00,
2013-09-10 09:46:00,75.2,70.0,30.05,North,-999,-999.0,0.0,84,0.00,,---,0.00,VWS V14.01,2013-09-10 13:46:00,
2013-09-10 09:51:00,76.0,70.5,30.05,North,-999,-999.0,0.0,83,0.00,,---,0.00,VWS V14.01,2013-09-10 13:51:00,
2013-09-10 09:56:00,76.3,70.4,30.05,North,-999,-999.0,0.0,82,0.00,,---,0.00,VWS V14.01,2013-09-10 13:56:00,
2013-09-10 10:01:00,76.9,71.0,30.05,North,-999,-999.0,0.0,82,0.00,,---,0.00,VWS V14.01,2013-09-10 14:01:00,
2013-09-10 10:07:00,77.6,71.7,30.05,North,-999,-999.0,0.0,82,0.00,,---,0.00,VWS V14.01,2013-09-10 14:07:00,
2013-09-10 10:12:00,77.9,71.2,30.06,North,-999,-999.0,0.0,80,0.00,,---,0.00,VWS V14.01,2013-09-10 14:12:00,
2013-09-10 10:17:00,78.3,71.3,30.06,North,-999,-999.0,0.0,79,0.00,,---,0.00,VWS V14.01,2013-09-10 14:17:00,
2013-09-10 10:22:00,78.7,71.3,30.06,North,-999,-999.0,0.0,78,0.00,,---,0.00,VWS V14.01,2013-09-10 14:22:00,
2013-09-10 10:27:00,80.1,73.0,30.06,North,-999,-999.0,0.0,79,0.00,,---,0.00,VWS V14.01,2013-09-10 14:27:00,
2013-09-10 10:32:00,83.9,75.5,30.06,North,-999,-999.0,0.0,76,0.00,,---,0.00,VWS V14.01,2013-09-10 14:32:00,
2013-09-10 10:37:00,85.7,73.9,30.05,North,-999,-999.0,0.0,68,0.00,,---,0.00,VWS V14.01,2013-09-10 14:37:00,
2013-09-10 10:42:00,86.9,75.5,30.05,North,-999,-999.0,0.0,69,0.00,,---,0.00,VWS V14.01,2013-09-10 14:42:00,
2013-09-10 10:47:00,87.8,74.6,30.05,North,-999,-999.0,0.0,65,0.00,,---,0.00,VWS V14.01,2013-09-10 14:47:00,
2013-09-10 10:52:00,89.6,76.3,30.05,North,-999,-999.0,0.0,65,0.00,,---,0.00,VWS V14.01,2013-09-10 14:52:00,
2013-09-10 10:57:00,91.6,76.2,30.05,North,-999,-999.0,0.0,61,0.00,,---,0.00,VWS V14.01,2013-09-10 14:57:00,
2013-09-10 11:03:00,93.2,76.2,30.05,North,-999,-999.0,0.0,58,0.00,,---,0.00,VWS V14.01,2013-09-10 15:03:00,
2013-09-10 11:08:00,94.3,76.7,30.05,North,-999,-999.0,0.0,57,0.00,,---,0.00,VWS V14.01,2013-09-10 15:08:00,
2013-09-10 11:13:00,93.8,74.7,30.05,North,-999,-999.0,0.0,54,0.00,,---,0.00,VWS V14.01,2013-09-10 15:13:00,
2013-09-10 11:18:00,92.2,73.2,30.05,North,-999,-999.0,0.0,54,0.00,,---,0.00,VWS V14.01,2013-09-10 15:18:00,
2013-09-10 11:23:00,90.4,72.6,30.05,North,-999,-999.0,0.0,56,0.00,,---,0.00,VWS V14.01,2013-09-10 15:23:00,
2013-09-10 11:28:00,91.4,73.5,30.05,North,-999,-999.0,0.0,56,0.00,,---,0.00,VWS V14.01,2013-09-10 15:28:00,
2013-09-10 11:33:00,92.9,74.9,30.05,North,-999,-999.0,0.0,56,0.00,,---,0.00,VWS V14.01,2013-09-10 15:33:00,
2013-09-10 11:38:00,94.5,74.7,30.05,North,-999,-999.0,0.0,53,0.00,,---,0.00,VWS V14.01,2013-09-10 15:38:00,
2013-09-10 11:43:00,94.0,73.1,30.05,North,-999,-999.0,0.0,51,0.00,,---,0.00,VWS V14.01,2013-09-10 15:43:00,
2013-09-10 11:48:00,94.0,74.3,30.05,North,-999,-999.0,0.0,53,0.00,,---,0.00,VWS V14.01,2013-09-10 15:48:00,
2013-09-10 11:53:00,96.1,75.6,30.04,North,-999,-999.0,0.0,52,0.00,,---,0.00,VWS V14.01,2013-09-10 15:53:00,
2013-09-10 11:58:00,98.5,76.1,30.05,North,-999,-999.0,0.0,49,0.00,,---,0.00,VWS V14.01,2013-09-10 15:58:00,
2013-09-10 12:03:00,95.8,71.7,30.04,North,-999,-999.0,0.0,46,0.00,,---,0.00,VWS V14.01,2013-09-10 16:03:00,
2013-09-10 12:09:00,94.5,74.2,30.04,North,-999,-999.0,0.0,52,0.00,,---,0.00,VWS V14.01,2013-09-10 16:09:00,
2013-09-10 12:14:00,95.9,75.4,30.04,North,-999,-999.0,0.0,52,0.00,,---,0.00,VWS V14.01,2013-09-10 16:14:00,
2013-09-10 12:19:00,98.3,74.0,30.04,North,-999,-999.0,0.0,46,0.00,,---,0.00,VWS V14.01,2013-09-10 16:19:00,
2013-09-10 12:24:00,97.2,73.0,30.04,North,-999,-999.0,0.0,46,0.00,,---,0.00,VWS V14.01,2013-09-10 16:24:00,
2013-09-10 12:29:00,96.5,73.6,30.04,North,-999,-999.0,0.0,48,0.00,,---,0.00,VWS V14.01,2013-09-10 16:29:00,
2013-09-10 12:34:00,97.9,74.3,30.03,North,-999,-999.0,0.0,47,0.00,,---,0.00,VWS V14.01,2013-09-10 16:34:00,
2013-09-10 12:39:00,97.9,73.0,30.03,North,-999,-999.0,0.0,45,0.00,,---,0.00,VWS V14.01,2013-09-10 16:39:00,
2013-09-10 12:44:00,97.6,73.3,30.03,North,-999,-999.0,0.0,46,0.00,,---,0.00,VWS V14.01,2013-09-10 16:44:00,
2013-09-10 12:49:00,98.3,73.3,30.03,North,-999,-999.0,0.0,45,0.00,,---,0.00,VWS V14.01,2013-09-10 16:49:00,
2013-09-10 12:54:00,97.7,72.8,30.03,North,-999,-999.0,0.0,45,0.00,,---,0.00,VWS V14.01,2013-09-10 16:54:00,
2013-09-10 13:00:00,96.8,72.6,30.03,North,-999,-999.0,0.0,46,0.00,,---,0.00,VWS V14.01,2013-09-10 17:00:00,
2013-09-10 13:05:00,96.5,71.7,30.03,North,-999,-999.0,0.0,45,0.00,,---,0.00,VWS V14.01,2013-09-10 17:05:00,
2013-09-10 13:10:00,94.9,71.5,30.03,North,-999,-999.0,0.0,47,0.00,,---,0.00,VWS V14.01,2013-09-10 17:10:00,
2013-09-10 13:15:00,96.3,72.8,30.03,North,-999,-999.0,0.0,47,0.00,,---,0.00,VWS V14.01,2013-09-10 17:15:00,
2013-09-10 13:20:00,97.9,73.0,30.03,North,-999,-999.0,0.0,45,0.00,,---,0.00,VWS V14.01,2013-09-10 17:20:00,
2013-09-10 13:25:00,99.0,74.0,30.03,North,-999,-999.0,0.0,45,0.00,,---,0.00,VWS V14.01,2013-09-10 17:25:00,
2013-09-10 13:30:00,99.7,73.2,30.03,North,-999,-999.0,0.0,43,0.00,,---,0.00,VWS V14.01,2013-09-10 17:30:00,
2013-09-10 13:32:00,100.1,72.2,30.03,North,-999,-999.0,0.0,41,0.00,,---,0.00,VWS V14.01,2013-09-10 17:32:00,
2013-09-10 13:36:00,100.1,72.2,30.03,North,-999,-999.0,0.0,41,0.00,,---,0.00,VWS V14.01,2013-09-10 17:36:00,
2013-09-10 13:42:00,100.1,72.2,30.03,North,-999,-999.0,0.0,41,0.00,,---,0.00,VWS V14.01,2013-09-10 17:42:00,
2013-09-10 14:00:00,96.1,71.3,30.03,North,-999,-999.0,0.0,45,0.00,,---,0.00,VWS V14.01,2013-09-10 18:00:00,
2013-09-10 14:06:00,96.1,71.3,30.03,North,-999,-999.0,0.0,45,0.00,,---,0.00,VWS V14.01,2013-09-10 18:06:00,
2013-09-10 15:00:00,96.8,72.0,30.01,North,-999,-999.0,0.0,45,0.00,,---,0.00,VWS V14.01,2013-09-10 19:00:00,
2013-09-10 15:06:00,96.8,72.0,30.01,North,-999,-999.0,0.0,45,0.00,,---,0.00,VWS V14.01,2013-09-10 19:06:00,
2013-09-10 16:00:00,103.3,72.0,29.99,North,-999,-999.0,0.0,37,0.00,,---,0.00,VWS V14.01,2013-09-10 20:00:00,
2013-09-10 16:05:00,103.3,71.2,29.99,North,-999,-999.0,0.0,36,0.00,,---,0.00,VWS V14.01,2013-09-10 20:05:00,
2013-09-10 16:10:00,102.2,69.4,29.98,North,-999,-999.0,0.0,35,0.00,,---,0.00,VWS V14.01,2013-09-10 20:10:00,
2013-09-10 16:15:00,99.0,69.7,29.98,North,-999,-999.0,0.0,39,0.00,,---,0.00,VWS V14.01,2013-09-10 20:15:00,
2013-09-10 16:20:00,98.5,70.8,29.98,North,-999,-999.0,0.0,41,0.00,,---,0.00,VWS V14.01,2013-09-10 20:20:00,
2013-09-10 16:25:00,99.7,70.3,29.98,North,-999,-999.0,0.0,39,0.00,,---,0.00,VWS V14.01,2013-09-10 20:25:00,
2013-09-10 16:31:00,100.3,70.1,29.98,North,-999,-999.0,0.0,38,0.00,,---,0.00,VWS V14.01,2013-09-10 20:31:00,
2013-09-10 16:36:00,100.6,71.2,29.98,North,-999,-999.0,0.0,39,0.00,,---,0.00,VWS V14.01,2013-09-10 20:36:00,
2013-09-10 16:41:00,101.0,71.5,29.98,North,-999,-999.0,0.0,39,0.00,,---,0.00,VWS V14.01,2013-09-10 20:41:00,
2013-09-10 16:46:00,101.2,70.9,29.98,North,-999,-999.0,0.0,38,0.00,,---,0.00,VWS V14.01,2013-09-10 20:46:00,
2013-09-10 16:51:00,100.8,69.0,29.98,North,-999,-999.0,0.0,36,0.00,,---,0.00,VWS V14.01,2013-09-10 20:51:00,
2013-09-10 16:56:00,100.6,69.6,29.98,North,-999,-999.0,0.0,37,0.00,,---,0.00,VWS V14.01,2013-09-10 20:56:00,
2013-09-10 17:02:00,100.8,69.8,29.98,North,-999,-999.0,0.0,37,0.00,,---,0.00,VWS V14.01,2013-09-10 21:02:00,
2013-09-10 17:07:00,101.3,71.0,29.98,North,-999,-999.0,0.0,38,0.00,,---,0.00,VWS V14.01,2013-09-10 21:07:00,
2013-09-10 17:12:00,101.5,71.2,29.97,North,-999,-999.0,0.0,38,0.00,,---,0.00,VWS V14.01,2013-09-10 21:12:00,
2013-09-10 17:18:00,100.6,70.4,29.98,North,-999,-999.0,0.0,38,0.00,,---,0.00,VWS V14.01,2013-09-10 21:18:00,
2013-09-10 17:23:00,98.6,70.1,29.97,North,-999,-999.0,0.0,40,0.00,,---,0.00,VWS V14.01,2013-09-10 21:23:00,
2013-09-10 17:28:00,97.9,69.5,29.97,North,-999,-999.0,0.0,40,0.00,,---,0.00,VWS V14.01,2013-09-10 21:28:00,
2013-09-10 17:33:00,98.8,70.3,29.97,North,-999,-999.0,0.0,40,0.00,,---,0.00,VWS V14.01,2013-09-10 21:33:00,
2013-09-10 17:38:00,99.2,70.7,29.97,North,-999,-999.0,0.0,40,0.00,,---,0.00,VWS V14.01,2013-09-10 21:38:00,
2013-09-10 17:43:00,99.0,70.5,29.97,North,-999,-999.0,0.0,40,0.00,,---,0.00,VWS V14.01,2013-09-10 21:43:00,
2013-09-10 17:48:00,99.2,69.9,29.97,North,-999,-999.0,0.0,39,0.00,,---,0.00,VWS V14.01,2013-09-10 21:48:00,
2013-09-10 17:53:00,98.8,70.3,29.97,North,-999,-999.0,0.0,40,0.00,,---,0.00,VWS V14.01,2013-09-10 21:53:00,
2013-09-10 17:58:00,99.4,70.1,29.97,North,-999,-999.0,0.0,39,0.00,,---,0.00,VWS V14.01,2013-09-10 21:58:00,
2013-09-10 18:04:00,98.6,70.1,29.97,North,-999,-999.0,0.0,40,0.00,,---,0.00,VWS V14.01,2013-09-10 22:04:00,
2013-09-10 18:09:00,98.5,70.8,29.96,North,-999,-999.0,0.0,41,0.00,,---,0.00,VWS V14.01,2013-09-10 22:09:00,
2013-09-10 18:14:00,98.6,70.8,29.97,North,-999,-999.0,0.0,41,0.00,,---,0.00,VWS V14.01,2013-09-10 22:14:00,
2013-09-10 18:19:00,97.9,70.2,29.96,North,-999,-999.0,0.0,41,0.00,,---,0.00,VWS V14.01,2013-09-10 22:19:00,
2013-09-10 18:24:00,97.2,70.3,29.96,North,-999,-999.0,0.0,42,0.00,,---,0.00,VWS V14.01,2013-09-10 22:24:00,
2013-09-10 18:29:00,96.7,70.5,29.96,North,-999,-999.0,0.0,43,0.00,,---,0.00,VWS V14.01,2013-09-10 22:29:00,
2013-09-10 18:34:00,96.7,71.2,29.96,North,-999,-999.0,0.0,44,0.00,,---,0.00,VWS V14.01,2013-09-10 22:34:00,
2013-09-10 18:39:00,96.5,71.0,29.97,North,-999,-999.0,0.0,44,0.00,,---,0.00,VWS V14.01,2013-09-10 22:39:00,
2013-09-10 18:44:00,95.4,70.7,29.97,North,-999,-999.0,0.0,45,0.00,,---,0.00,VWS V14.01,2013-09-10 22:44:00,
2013-09-10 18:49:00,94.5,70.5,29.97,North,-999,-999.0,0.0,46,0.00,,---,0.00,VWS V14.01,2013-09-10 22:49:00,
2013-09-10 18:54:00,93.6,70.3,29.97,North,-999,-999.0,0.0,47,0.00,,---,0.00,VWS V14.01,2013-09-10 22:54:00,
2013-09-10 18:59:00,92.5,70.6,29.97,North,-999,-999.0,0.0,49,0.00,,---,0.00,VWS V14.01,2013-09-10 22:59:00,
2013-09-10 19:05:00,90.7,70.1,29.97,North,-999,-999.0,0.0,51,0.00,,---,0.00,VWS V14.01,2013-09-10 23:05:00,
2013-09-10 19:10:00,89.5,70.7,29.97,North,-999,-999.0,0.0,54,0.00,,---,0.00,VWS V14.01,2013-09-10 23:10:00,
2013-09-10 19:15:00,88.0,69.8,29.97,North,-999,-999.0,0.0,55,0.00,,---,0.00,VWS V14.01,2013-09-10 23:15:00,
2013-09-10 19:20:00,86.6,69.6,29.97,North,-999,-999.0,0.0,57,0.00,,---,0.00,VWS V14.01,2013-09-10 23:20:00,
2013-09-10 19:25:00,85.9,69.9,29.97,North,-999,-999.0,0.0,59,0.00,,---,0.00,VWS V14.01,2013-09-10 23:25:00,
2013-09-10 19:30:00,85.0,69.6,29.98,North,-999,-999.0,0.0,60,0.00,,---,0.00,VWS V14.01,2013-09-10 23:30:00,
2013-09-10 19:35:00,83.9,69.0,29.98,North,-999,-999.0,0.0,61,0.00,,---,0.00,VWS V14.01,2013-09-10 23:35:00,
2013-09-10 19:40:00,83.2,69.3,29.98,North,-999,-999.0,0.0,63,0.00,,---,0.00,VWS V14.01,2013-09-10 23:40:00,
2013-09-10 19:45:00,82.4,68.6,29.98,North,-999,-999.0,0.0,63,0.00,,---,0.00,VWS V14.01,2013-09-10 23:45:00,
2013-09-10 19:50:00,81.7,68.8,29.98,North,-999,-999.0,0.0,65,0.00,,---,0.00,VWS V14.01,2013-09-10 23:50:00,
2013-09-10 19:55:00,81.4,68.5,29.98,North,-999,-999.0,0.0,65,0.00,,---,0.00,VWS V14.01,2013-09-10 23:55:00,
2013-09-10 20:00:00,80.6,68.2,29.98,North,-999,-999.0,0.0,66,0.00,,---,0.00,VWS V14.01,2013-09-11 00:00:00,
2013-09-10 20:06:00,80.1,68.2,29.98,North,-999,-999.0,0.0,67,0.00,,---,0.00,VWS V14.01,2013-09-11 00:06:00,
2013-09-10 20:11:00,79.6,68.1,29.98,North,-999,-999.0,0.0,68,0.00,,---,0.00,VWS V14.01,2013-09-11 00:11:00,
2013-09-10 20:16:00,79.2,68.2,29.99,North,-999,-999.0,0.0,69,0.00,,---,0.00,VWS V14.01,2013-09-11 00:16:00,
2013-09-10 20:21:00,78.5,67.9,29.99,North,-999,-999.0,0.0,70,0.00,,---,0.00,VWS V14.01,2013-09-11 00:21:00,
2013-09-10 20:26:00,78.1,67.9,29.99,North,-999,-999.0,0.0,71,0.00,,---,0.00,VWS V14.01,2013-09-11 00:26:00,
2013-09-10 20:31:00,77.8,67.7,29.99,North,-999,-999.0,0.0,71,0.00,,---,0.00,VWS V14.01,2013-09-11 00:31:00,
2013-09-10 20:36:00,77.6,67.5,30.00,North,-999,-999.0,0.0,71,0.00,,---,0.00,VWS V14.01,2013-09-11 00:36:00,
2013-09-10 20:41:00,77.2,67.5,30.00,North,-999,-999.0,0.0,72,0.00,,---,0.00,VWS V14.01,2013-09-11 00:41:00,
2013-09-10 20:46:00,77.0,67.7,30.00,North,-999,-999.0,0.0,73,0.00,,---,0.00,VWS V14.01,2013-09-11 00:46:00,
2013-09-10 20:51:00,76.7,67.4,30.00,North,-999,-999.0,0.0,73,0.00,,---,0.00,VWS V14.01,2013-09-11 00:51:00,
2013-09-10 20:56:00,76.3,67.4,30.00,North,-999,-999.0,0.0,74,0.00,,---,0.00,VWS V14.01,2013-09-11 00:56:00,
2013-09-10 21:01:00,76.0,67.1,30.00,North,-999,-999.0,0.0,74,0.00,,---,0.00,VWS V14.01,2013-09-11 01:01:00,
2013-09-10 21:07:00,76.0,67.5,30.01,North,-999,-999.0,0.0,75,0.00,,---,0.00,VWS V14.01,2013-09-11 01:07:00,
2013-09-10 21:12:00,75.8,67.3,30.01,North,-999,-999.0,0.0,75,0.00,,---,0.00,VWS V14.01,2013-09-11 01:12:00,
2013-09-10 21:17:00,75.6,67.1,30.01,North,-999,-999.0,0.0,75,0.00,,---,0.00,VWS V14.01,2013-09-11 01:17:00,
2013-09-10 21:22:00,75.4,66.9,30.02,North,-999,-999.0,0.0,75,0.00,,---,0.00,VWS V14.01,2013-09-11 01:22:00,
2013-09-10 21:27:00,75.2,67.1,30.02,North,-999,-999.0,0.0,76,0.00,,---,0.00,VWS V14.01,2013-09-11 01:27:00,
2013-09-10 21:32:00,75.2,67.1,30.02,North,-999,-999.0,0.0,76,0.00,,---,0.00,VWS V14.01,2013-09-11 01:32:00,
2013-09-10 21:37:00,74.9,67.2,30.02,North,-999,-999.0,0.0,77,0.00,,---,0.00,VWS V14.01,2013-09-11 01:37:00,
2013-09-10 21:42:00,74.5,66.8,30.02,North,-999,-999.0,0.0,77,0.00,,---,0.00,VWS V14.01,2013-09-11 01:42:00,
2013-09-10 21:47:00,74.3,67.0,30.02,North,-999,-999.0,0.0,78,0.00,,---,0.00,VWS V14.01,2013-09-11 01:47:00,
2013-09-10 21:52:00,74.2,66.9,30.03,North,-999,-999.0,0.0,78,0.00,,---,0.00,VWS V14.01,2013-09-11 01:52:00,
2013-09-10 21:57:00,73.8,66.5,30.03,North,-999,-999.0,0.0,78,0.00,,---,0.00,VWS V14.01,2013-09-11 01:57:00,
2013-09-10 22:03:00,73.6,66.3,30.03,North,-999,-999.0,0.0,78,0.00,,---,0.00,VWS V14.01,2013-09-11 02:03:00,
2013-09-10 22:08:00,73.4,66.5,30.03,North,-999,-999.0,0.0,79,0.00,,---,0.00,VWS V14.01,2013-09-11 02:08:00,
2013-09-10 22:13:00,73.4,66.5,30.03,North,-999,-999.0,0.0,79,0.00,,---,0.00,VWS V14.01,2013-09-11 02:13:00,
2013-09-10 22:18:00,73.3,66.8,30.03,North,-999,-999.0,0.0,80,0.00,,---,0.00,VWS V14.01,2013-09-11 02:18:00,
2013-09-10 22:23:00,73.1,66.6,30.03,North,-999,-999.0,0.0,80,0.00,,---,0.00,VWS V14.01,2013-09-11 02:23:00,
2013-09-10 22:28:00,73.1,66.6,30.03,North,-999,-999.0,0.0,80,0.00,,---,0.00,VWS V14.01,2013-09-11 02:28:00,
2013-09-10 22:33:00,72.9,66.4,30.03,North,-999,-999.0,0.0,80,0.00,,---,0.00,VWS V14.01,2013-09-11 02:33:00,
2013-09-10 22:38:00,72.9,66.7,30.03,North,-999,-999.0,0.0,81,0.00,,---,0.00,VWS V14.01,2013-09-11 02:38:00,
2013-09-10 22:43:00,72.7,66.5,30.03,North,-999,-999.0,0.0,81,0.00,,---,0.00,VWS V14.01,2013-09-11 02:43:00,
2013-09-10 22:48:00,72.5,66.0,30.03,North,-999,-999.0,0.0,80,0.00,,---,0.00,VWS V14.01,2013-09-11 02:48:00,
2013-09-10 22:53:00,72.4,65.9,30.03,North,-999,-999.0,0.0,80,0.00,,---,0.00,VWS V14.01,2013-09-11 02:53:00,
2013-09-10 22:58:00,72.2,65.7,30.03,North,-999,-999.0,0.0,80,0.00,,---,0.00,VWS V14.01,2013-09-11 02:58:00,
2013-09-10 23:03:00,72.0,65.5,30.03,North,-999,-999.0,0.0,80,0.00,,---,0.00,VWS V14.01,2013-09-11 03:03:00,
2013-09-10 23:09:00,72.0,65.9,30.03,North,-999,-999.0,0.0,81,0.00,,---,0.00,VWS V14.01,2013-09-11 03:09:00,
2013-09-10 23:14:00,71.6,65.5,30.03,North,-999,-999.0,0.0,81,0.00,,---,0.00,VWS V14.01,2013-09-11 03:14:00,
2013-09-10 23:19:00,71.6,65.5,30.03,North,-999,-999.0,0.0,81,0.00,,---,0.00,VWS V14.01,2013-09-11 03:19:00,
2013-09-10 23:24:00,71.6,65.5,30.03,North,-999,-999.0,0.0,81,0.00,,---,0.00,VWS V14.01,2013-09-11 03:24:00,
2013-09-10 23:29:00,71.5,65.7,30.03,North,-999,-999.0,0.0,82,0.00,,---,0.00,VWS V14.01,2013-09-11 03:29:00,
2013-09-10 23:34:00,71.3,65.5,30.03,North,-999,-999.0,0.0,82,0.00,,---,0.00,VWS V14.01,2013-09-11 03:34:00,
2013-09-10 23:39:00,71.3,65.5,30.03,North,-999,-999.0,0.0,82,0.00,,---,0.00,VWS V14.01,2013-09-11 03:39:00,
2013-09-10 23:44:00,71.1,65.3,30.03,North,-999,-999.0,0.0,82,0.00,,---,0.00,VWS V14.01,2013-09-11 03:44:00,
2013-09-10 23:49:00,71.1,65.3,30.03,North,-999,-999.0,0.0,82,0.00,,---,0.00,VWS V14.01,2013-09-11 03:49:00,
2013-09-10 23:54:00,70.9,65.1,30.03,North,-999,-999.0,0.0,82,0.00,,---,0.00,VWS V14.01,2013-09-11 03:54:00,
2013-09-10 23:59:00,70.7,64.9,30.03,North,-999,-999.0,0.0,82,0.00,,---,0.00,VWS V14.01,2013-09-11 03:59:00,